Overview Statistics Trail Chart Weather Telemetry Raw packets
 

This is the latest recevied weather packets stored in our database for station/object KC5TIL. If no packets are shown the sender has not sent any weather packets the latest 10 day(s).

<< 19 20 21 22 23 24 25 >>
Time Temp. Humidity Pressure Rain* Wind** Luminosity Snow
1788476736 32.78° C 62% 1011.7 hPa 0 mm - 74 W/m² -
1788476434 32.78° C 62% 1011.6 hPa 0 mm - 214 W/m² -
1788476132 33.33° C 60% 1011.7 hPa 0 mm - 205 W/m² -
1788475828 33.33° C 60% 1011.5 hPa 0 mm - 220 W/m² -
1788475524 32.78° C 62% 1011.5 hPa 0 mm - 211 W/m² -
1788475220 33.33° C 61% 1011.5 hPa 0 mm - 181 W/m² -
1788474919 33.33° C 61% 1011.4 hPa 0 mm - 250 W/m² -
1788474618 32.78° C 61% 1011.7 hPa 0 mm - 247 W/m² -
1788474314 32.78° C 61% 1011.7 hPa 0 mm - 309 W/m² -
1788474012 33.33° C 62% 1011.7 hPa 0 mm - 328 W/m² -
1788473708 33.33° C 60% 1011.7 hPa 0 mm - 334 W/m² -
1788473426 33.33° C 61% 1011.7 hPa 0 mm - 346 W/m² -
1788473099 33.33° C 62% 1011.8 hPa 0 mm - 357 W/m² -
1788472796 33.33° C 61% 1011.8 hPa 0 mm - 373 W/m² -
1788472493 33.33° C 63% 1011.7 hPa 0 mm - 409 W/m² -
1788472191 34.44° C 58% 1011.8 hPa 0 mm - 410 W/m² -
1788471886 33.89° C 62% 1011.7 hPa 0 mm - 376 W/m² -
1788471581 33.33° C 62% 1011.8 hPa 0 mm - 439 W/m² -
1788471277 33.33° C 62% 1011.8 hPa 0 mm - 443 W/m² -
1788470972 33.33° C 62% 1011.7 hPa 0 mm - 475 W/m² -
1788470668 32.78° C 64% 1011.8 hPa 0 mm - 497 W/m² -
1788470362 32.22° C 66% 1012 hPa 0 mm - 252 W/m² -
1788470058 32.78° C 64% 1012.1 hPa 0 mm - 506 W/m² -
1788469754 33.33° C 63% 1011.8 hPa 0 mm - 542 W/m² -
1788469454 32.78° C 62% 1012.1 hPa 0 mm - 337 W/m² -

* Rain latest hour (hover to see other rain measurements)
** Current wind speed in m/s (hover to see current wind gust speed)